createdAt,value
2023-04-23T00:00:13.379Z,100041.16
2023-04-23T00:02:44.689Z,100040.03
2023-04-23T00:05:13.130Z,100036.75
2023-04-23T00:07:40.724Z,100034.63
2023-04-23T00:10:09.056Z,100041.94
2023-04-23T00:12:36.580Z,100041.53
2023-04-23T00:15:04.444Z,100046.16
2023-04-23T00:17:31.468Z,100037.03
2023-04-23T00:19:58.369Z,100043.25
2023-04-23T00:22:25.187Z,100044.34
2023-04-23T00:24:52.369Z,100054.91
2023-04-23T00:27:21.189Z,100042.16
2023-04-23T00:29:51.500Z,100051.16
2023-04-23T00:32:19.065Z,100049.25
2023-04-23T00:34:48.925Z,100050.44
2023-04-23T00:37:18.549Z,100047.72
2023-04-23T00:39:45.754Z,100046.72
2023-04-23T00:42:13.934Z,100047.72
2023-04-23T00:44:44.169Z,100056.31
2023-04-23T00:47:12.396Z,100047.72
2023-04-23T00:49:39.591Z,100052.69
2023-04-23T00:52:06.848Z,100054.91
2023-04-23T00:54:34.182Z,100054.50
2023-04-23T00:57:02.253Z,100054.09
2023-04-23T00:59:32.099Z,100047.69
2023-04-23T01:01:59.314Z,100052.47
2023-04-23T01:04:29.578Z,100051.91
2023-04-23T01:06:59.650Z,100054.50
2023-04-23T01:09:27.894Z,100053.03
2023-04-23T01:11:55.719Z,100055.91
2023-04-23T01:14:22.859Z,100053.53
2023-04-23T01:16:50.424Z,100057.59
2023-04-23T01:19:17.776Z,100058.09
2023-04-23T01:21:45.019Z,100062.41
2023-04-23T01:24:15.441Z,100060.91
2023-04-23T01:26:46.939Z,100062.31
2023-04-23T01:29:14.358Z,100071.00
2023-04-23T01:31:42.807Z,100061.25
2023-04-23T01:34:10.921Z,100065.47
2023-04-23T01:36:38.367Z,100063.63
2023-04-23T01:39:06.076Z,100064.22
2023-04-23T01:41:34.204Z,100065.81
2023-04-23T01:44:02.374Z,100065.03
2023-04-23T01:46:31.025Z,100069.63
2023-04-23T01:48:59.125Z,100065.25
2023-04-23T01:51:27.173Z,100066.31
2023-04-23T01:53:56.835Z,100061.44
2023-04-23T01:56:26.285Z,100069.63
2023-04-23T01:58:53.738Z,100070.72
2023-04-23T02:01:24.154Z,100067.44
2023-04-23T02:03:54.622Z,100077.34
2023-04-23T02:06:22.396Z,100080.25
2023-04-23T02:08:49.858Z,100083.53
2023-04-23T02:11:17.037Z,100083.84
2023-04-23T02:13:44.205Z,100085.22
2023-04-23T02:16:13.181Z,100085.22
2023-04-23T02:18:41.393Z,100084.19
2023-04-23T02:21:09.212Z,100083.19
2023-04-23T02:23:36.528Z,100085.09
2023-04-23T02:26:04.248Z,100099.97
2023-04-23T02:28:31.881Z,100095.38
2023-04-23T02:30:59.188Z,100077.38
2023-04-23T02:33:26.674Z,100082.22
2023-04-23T02:35:54.832Z,100086.06
2023-04-23T02:38:22.424Z,100092.03
2023-04-23T02:40:53.485Z,100081.34
2023-04-23T02:43:21.910Z,100086.38
2023-04-23T02:45:52.274Z,100082.72
2023-04-23T02:48:19.391Z,100083.84
2023-04-23T02:50:47.204Z,100078.94
2023-04-23T02:53:16.681Z,100087.28
2023-04-23T02:55:44.218Z,100088.44
2023-04-23T02:58:13.223Z,100081.78
2023-04-23T03:00:42.187Z,100077.19
2023-04-23T03:03:12.365Z,100072.81
2023-04-23T03:05:39.834Z,100077.66
2023-04-23T03:08:07.180Z,100076.25
2023-04-23T03:10:34.177Z,100075.47
2023-04-23T03:13:00.978Z,100085.50
2023-04-23T03:15:28.041Z,100080.97
2023-04-23T03:17:55.164Z,100082.63
2023-04-23T03:20:22.228Z,100077.53
2023-04-23T03:22:49.160Z,100083.94
2023-04-23T03:25:16.544Z,100085.56
2023-04-23T03:27:44.580Z,100087.69
2023-04-23T03:30:11.964Z,100093.00
2023-04-23T03:32:41.825Z,100087.69
2023-04-23T03:35:09.670Z,100088.53
2023-04-23T03:37:39.173Z,100087.75
2023-04-23T03:40:08.183Z,100079.16
2023-04-23T03:42:38.526Z,100088.09
2023-04-23T03:45:06.642Z,100091.09
2023-04-23T03:47:34.140Z,100086.28
2023-04-23T03:50:01.522Z,100083.66
2023-04-23T03:52:29.775Z,100077.25
2023-04-23T03:54:59.770Z,100082.75
2023-04-23T03:57:35.715Z,100087.56
2023-04-23T04:00:15.999Z,100086.75
2023-04-23T04:02:43.343Z,100080.00
2023-04-23T04:05:11.494Z,100100.00
2023-04-23T04:07:41.262Z,100101.66
2023-04-23T04:10:08.434Z,100104.31
2023-04-23T04:12:35.442Z,100110.16
2023-04-23T04:15:03.412Z,100100.75
2023-04-23T04:17:30.368Z,100107.00
2023-04-23T04:19:57.400Z,100114.31
2023-04-23T04:22:24.617Z,100114.06
2023-04-23T04:24:52.846Z,100110.88
2023-04-23T04:27:19.655Z,100108.44
2023-04-23T04:29:46.675Z,100113.03
2023-04-23T04:32:13.918Z,100110.63
2023-04-23T04:34:41.430Z,100109.59
2023-04-23T04:37:10.136Z,100106.19
2023-04-23T04:39:37.287Z,100095.41
2023-04-23T04:42:06.922Z,100105.94
2023-04-23T04:44:34.450Z,100107.88
2023-04-23T04:47:01.759Z,100110.06
2023-04-23T04:49:28.658Z,100104.31
2023-04-23T04:51:55.506Z,100105.34
2023-04-23T04:54:22.368Z,100107.78
2023-04-23T04:56:49.227Z,100112.13
2023-04-23T04:59:15.995Z,100109.44
2023-04-23T05:01:43.451Z,100109.44
2023-04-23T05:04:10.485Z,100112.38
2023-04-23T05:06:37.912Z,100118.50
2023-04-23T05:09:05.127Z,100116.47
2023-04-23T05:11:32.016Z,100124.72
2023-04-23T05:13:58.850Z,100129.31
2023-04-23T05:16:25.735Z,100120.13
2023-04-23T05:18:52.559Z,100123.41
2023-04-23T05:21:19.706Z,100125.81
2023-04-23T05:23:46.563Z,100123.47
2023-04-23T05:26:13.457Z,100124.25
2023-04-23T05:28:40.597Z,100126.63
2023-04-23T05:31:07.448Z,100117.16
2023-04-23T05:33:46.418Z,100119.22
2023-04-23T05:36:16.617Z,100119.66
2023-04-23T05:38:43.380Z,100116.38
2023-04-23T05:41:10.548Z,100124.47
2023-04-23T05:43:37.452Z,100106.69
2023-04-23T05:46:07.869Z,100099.34
2023-04-23T05:48:34.910Z,100107.09
2023-04-23T05:51:01.872Z,100107.59
2023-04-23T05:53:29.004Z,100114.00
2023-04-23T05:55:56.230Z,100114.88
2023-04-23T05:58:23.989Z,100108.63
2023-04-23T06:00:53.167Z,100105.63
2023-04-23T06:03:20.279Z,100112.88
2023-04-23T06:05:47.295Z,100110.66
2023-04-23T06:08:13.977Z,100109.19
2023-04-23T06:10:40.801Z,100120.44
2023-04-23T06:13:07.673Z,100124.63
2023-04-23T06:15:34.399Z,100126.47
2023-04-23T06:18:01.255Z,100128.94
2023-04-23T06:20:28.236Z,100129.75
2023-04-23T06:22:56.424Z,100129.22
2023-04-23T06:25:23.748Z,100124.53
2023-04-23T06:27:51.375Z,100123.81
2023-04-23T06:30:22.796Z,100113.72
2023-04-23T06:32:59.745Z,100110.28
2023-04-23T06:35:26.868Z,100103.88
2023-04-23T06:37:57.337Z,100099.44
2023-04-23T06:40:24.484Z,100093.31
2023-04-23T06:42:51.700Z,100091.75
2023-04-23T06:45:32.027Z,100080.69
2023-04-23T06:47:59.284Z,100087.03
2023-04-23T06:50:29.724Z,100087.47
2023-04-23T06:52:56.835Z,100085.56
2023-04-23T06:55:27.371Z,100078.41
2023-04-23T06:57:54.742Z,100088.75
2023-04-23T07:00:24.803Z,100086.91
2023-04-23T07:02:55.546Z,100088.97
2023-04-23T07:05:22.647Z,100076.47
2023-04-23T07:07:49.684Z,100087.72
2023-04-23T07:10:18.083Z,100090.44
2023-04-23T07:12:45.179Z,100090.06
2023-04-23T07:15:12.266Z,100090.28
2023-04-23T07:17:39.240Z,100085.72
2023-04-23T07:20:10.774Z,100077.53
2023-04-23T07:22:37.831Z,100085.69
2023-04-23T07:25:05.487Z,100078.59
2023-04-23T07:27:32.416Z,100072.19
2023-04-23T07:29:59.626Z,100071.03
2023-04-23T07:32:28.228Z,100070.13
2023-04-23T07:34:58.573Z,100073.84
2023-04-23T07:37:25.504Z,100063.78
2023-04-23T07:39:53.717Z,100067.75
2023-04-23T07:42:20.407Z,100061.69
2023-04-23T07:44:47.104Z,100061.09
2023-04-23T07:47:13.879Z,100064.56
2023-04-23T07:49:40.709Z,100061.16
2023-04-23T07:52:08.253Z,100060.81
2023-04-23T07:54:35.330Z,100068.38
2023-04-23T07:57:03.228Z,100061.84
2023-04-23T07:59:34.063Z,100060.16
2023-04-23T08:02:06.527Z,100056.56
2023-04-23T08:04:34.006Z,100052.44
2023-04-23T08:07:04.130Z,100057.31
2023-04-23T08:09:33.118Z,100047.41
2023-04-23T08:12:00.654Z,100051.22
2023-04-23T08:14:30.355Z,100046.69
2023-04-23T08:16:57.445Z,100043.38
2023-04-23T08:19:27.171Z,100040.16
2023-04-23T08:21:57.818Z,100048.69
2023-04-23T08:24:27.264Z,100046.97
2023-04-23T08:26:54.605Z,100029.59
2023-04-23T08:29:22.019Z,100026.25
2023-04-23T08:32:03.174Z,100015.22
2023-04-23T08:34:36.925Z,100012.84
2023-04-23T08:37:19.689Z,100006.91
2023-04-23T08:39:58.281Z,100010.63
2023-04-23T08:42:54.333Z,100013.09
2023-04-23T08:45:32.832Z,100004.38
2023-04-23T08:48:05.868Z,100018.81
2023-04-23T08:50:33.700Z,100006.72
2023-04-23T08:53:02.152Z,100015.03
2023-04-23T08:55:29.530Z,100005.84
2023-04-23T08:57:59.054Z,100000.66
2023-04-23T09:00:26.372Z,99993.13
2023-04-23T09:02:54.088Z,99990.66
2023-04-23T09:05:21.133Z,99983.00
2023-04-23T09:07:48.115Z,99970.22
2023-04-23T09:10:16.997Z,99968.56
2023-04-23T09:12:45.417Z,99974.06
2023-04-23T09:15:13.262Z,99969.09
2023-04-23T09:17:45.024Z,99964.97
2023-04-23T09:20:14.363Z,99953.34
2023-04-23T09:22:52.735Z,99966.50
2023-04-23T09:25:22.278Z,99962.06
2023-04-23T09:27:51.714Z,99951.53
2023-04-23T09:30:20.203Z,99962.03
2023-04-23T09:32:47.549Z,99952.88
2023-04-23T09:35:16.458Z,99945.97
2023-04-23T09:37:52.492Z,99943.31
2023-04-23T09:40:22.585Z,99945.69
2023-04-23T09:42:53.281Z,99945.53
2023-04-23T09:45:20.827Z,99939.53
2023-04-23T09:47:53.586Z,99942.75
2023-04-23T09:50:38.425Z,99939.28
2023-04-23T09:53:06.330Z,99951.09
2023-04-23T09:55:43.800Z,99941.44
2023-04-23T09:58:15.595Z,99929.25
2023-04-23T10:00:43.021Z,99926.66
2023-04-23T10:03:10.944Z,99924.63
2023-04-23T10:06:00.373Z,99923.06
2023-04-23T10:08:28.846Z,99916.97
2023-04-23T10:11:06.545Z,99917.94
2023-04-23T10:13:37.590Z,99902.97
2023-04-23T10:16:18.620Z,99905.69
2023-04-23T10:18:51.921Z,99913.78
2023-04-23T10:21:20.381Z,99905.53
2023-04-23T10:23:50.295Z,99909.31
2023-04-23T10:26:19.562Z,99904.88
2023-04-23T10:28:49.032Z,99899.44
2023-04-23T10:31:16.279Z,99905.72
2023-04-23T10:33:56.051Z,99905.69
2023-04-23T10:36:26.108Z,99900.28
2023-04-23T10:38:58.401Z,99896.34
2023-04-23T10:41:33.725Z,99890.03
2023-04-23T10:44:00.466Z,99881.38
2023-04-23T10:46:31.584Z,99886.91
2023-04-23T10:49:10.742Z,99876.69
2023-04-23T10:54:08.296Z,99880.50
2023-04-23T10:56:35.124Z,99880.56
2023-04-23T10:59:02.382Z,99868.19
2023-04-23T11:01:30.451Z,99869.41
2023-04-23T11:03:57.772Z,99866.25
2023-04-23T11:06:49.570Z,99860.28
2023-04-23T11:09:31.062Z,99859.28
2023-04-23T11:11:59.385Z,99863.94
2023-04-23T11:14:43.546Z,99849.03
2023-04-23T11:17:14.838Z,99839.84
2023-04-23T11:20:02.462Z,99839.81
2023-04-23T11:22:50.371Z,99846.31
2023-04-23T11:25:25.135Z,99832.78
2023-04-23T11:27:54.914Z,99826.03
2023-04-23T11:30:25.059Z,99823.19
2023-04-23T11:32:55.537Z,99827.75
2023-04-23T11:35:37.785Z,99827.19
2023-04-23T11:38:09.668Z,99810.44
2023-04-23T11:40:37.356Z,99811.28
2023-04-23T11:43:05.875Z,99805.94
2023-04-23T11:45:33.168Z,99809.19
2023-04-23T11:48:01.288Z,99813.59
2023-04-23T11:50:30.883Z,99799.34
2023-04-23T11:52:57.891Z,99788.47
2023-04-23T11:55:24.857Z,99776.72
2023-04-23T11:57:53.030Z,99782.91
2023-04-23T12:00:20.210Z,99774.63
2023-04-23T12:02:51.725Z,99775.09
2023-04-23T12:05:29.965Z,99771.84
2023-04-23T12:08:11.724Z,99763.53
2023-04-23T12:11:00.718Z,99751.78
2023-04-23T12:13:33.657Z,99755.38
2023-04-23T12:16:05.110Z,99744.41
2023-04-23T12:18:33.490Z,99744.16
2023-04-23T12:21:11.129Z,99730.31
2023-04-23T12:23:41.519Z,99734.50
2023-04-23T12:26:12.652Z,99735.19
2023-04-23T12:28:47.261Z,99729.38
2023-04-23T12:31:21.246Z,99734.69
2023-04-23T12:33:48.232Z,99727.22
2023-04-23T12:36:16.849Z,99710.03
2023-04-23T12:38:43.600Z,99717.19
2023-04-23T12:41:10.858Z,99712.16
2023-04-23T12:43:37.563Z,99715.19
2023-04-23T12:46:04.268Z,99711.88
2023-04-23T12:48:31.022Z,99713.69
2023-04-23T12:50:57.698Z,99707.38
2023-04-23T12:53:25.032Z,99705.91
2023-04-23T12:55:51.694Z,99709.91
2023-04-23T12:58:18.573Z,99703.56
2023-04-23T13:00:45.380Z,99698.94
2023-04-23T13:03:14.211Z,99688.63
2023-04-23T13:05:41.883Z,99694.53
2023-04-23T13:08:08.709Z,99686.19
2023-04-23T13:10:35.685Z,99676.59
2023-04-23T13:13:02.450Z,99685.28
2023-04-23T13:15:29.592Z,99675.38
2023-04-23T13:17:56.543Z,99684.63
2023-04-23T13:20:25.347Z,99671.00
2023-04-23T13:22:52.389Z,99660.56
2023-04-23T13:25:19.676Z,99655.06
2023-04-23T13:27:46.967Z,99662.31
2023-04-23T13:30:14.524Z,99649.25
2023-04-23T13:32:41.615Z,99649.16
2023-04-23T13:35:10.186Z,99646.00
2023-04-23T13:37:41.264Z,99636.97
2023-04-23T13:40:08.678Z,99630.69
2023-04-23T13:42:35.608Z,99626.34
2023-04-23T13:45:05.105Z,99624.97
2023-04-23T13:47:34.784Z,99613.78
2023-04-23T13:50:07.004Z,99620.16
2023-04-23T13:52:36.639Z,99608.31
2023-04-23T13:55:07.838Z,99601.22
2023-04-23T13:57:35.139Z,99588.31
2023-04-23T14:00:02.578Z,99577.75
2023-04-23T14:02:31.430Z,99578.31
2023-04-23T14:04:59.654Z,99568.78
2023-04-23T14:07:27.285Z,99573.97
2023-04-23T14:09:54.637Z,99575.22
2023-04-23T14:12:21.557Z,99562.50
2023-04-23T14:14:49.630Z,99559.13
2023-04-23T14:17:16.935Z,99554.53
2023-04-23T14:19:44.636Z,99549.13
2023-04-23T14:22:11.725Z,99552.41
2023-04-23T14:24:52.138Z,99543.13
2023-04-23T14:27:21.005Z,99535.63
2023-04-23T14:30:00.564Z,99529.22
2023-04-23T14:32:28.463Z,99519.44
2023-04-23T14:34:55.786Z,99523.50
2023-04-23T14:37:23.171Z,99516.81
2023-04-23T14:39:50.515Z,99512.91
2023-04-23T14:42:17.394Z,99513.47
2023-04-23T14:44:44.411Z,99496.19
2023-04-23T14:47:12.028Z,99496.91
2023-04-23T14:49:45.496Z,99500.41
2023-04-23T14:52:13.842Z,99488.81
2023-04-23T14:54:40.896Z,99490.63
2023-04-23T14:57:08.075Z,99486.63
2023-04-23T14:59:35.324Z,99478.41
2023-04-23T15:02:02.532Z,99478.19
2023-04-23T15:04:30.039Z,99472.16
2023-04-23T15:06:57.645Z,99477.69
2023-04-23T15:09:24.515Z,99475.28
2023-04-23T15:11:51.523Z,99478.19
2023-04-23T15:14:21.024Z,99474.38
2023-04-23T15:16:49.330Z,99479.53
2023-04-23T15:19:18.601Z,99478.69
2023-04-23T15:21:47.014Z,99476.06
2023-04-23T15:24:15.148Z,99477.25
2023-04-23T15:26:42.752Z,99480.09
2023-04-23T15:29:13.950Z,99474.66
2023-04-23T15:31:42.636Z,99477.16
2023-04-23T15:34:11.576Z,99475.88
2023-04-23T15:36:44.853Z,99480.41
2023-04-23T15:39:13.126Z,99477.25
2023-04-23T15:41:41.334Z,99477.25
2023-04-23T15:44:13.073Z,99479.84
2023-04-23T15:46:40.912Z,99475.94
2023-04-23T15:49:08.085Z,99480.97
2023-04-23T15:51:34.949Z,99485.78
2023-04-23T15:54:02.799Z,99489.84
2023-04-23T15:56:29.678Z,99491.91
2023-04-23T15:58:59.395Z,99504.84
2023-04-23T16:01:27.535Z,99517.97
2023-04-23T16:06:30.292Z,99531.53
2023-04-23T16:08:57.297Z,99553.53
2023-04-23T16:11:27.710Z,99561.59
2023-04-23T16:13:56.175Z,99567.06
2023-04-23T16:16:23.336Z,99568.88
2023-04-23T16:18:56.350Z,99571.91
2023-04-23T16:21:24.959Z,99581.09
2023-04-23T16:23:52.064Z,99568.09
2023-04-23T16:26:18.916Z,99550.66
2023-04-23T16:28:51.926Z,99552.50
2023-04-23T16:31:23.551Z,99564.19
2023-04-23T16:33:51.167Z,99549.22
2023-04-23T16:36:18.419Z,99548.81
2023-04-23T16:38:49.552Z,99540.66
2023-04-23T16:41:19.221Z,99539.47
2023-04-23T16:43:51.796Z,99542.97
2023-04-23T16:46:18.881Z,99537.53
2023-04-23T16:48:46.283Z,99540.38
2023-04-23T16:51:14.018Z,99548.75
2023-04-23T16:53:41.684Z,99553.38
2023-04-23T16:56:08.786Z,99542.94
2023-04-23T16:58:36.237Z,99539.00
2023-04-23T17:01:03.104Z,99547.03
2023-04-23T17:03:30.416Z,99551.22
2023-04-23T17:06:28.100Z,99552.81
2023-04-23T17:08:58.067Z,99546.94
2023-04-23T17:11:26.393Z,99544.69
2023-04-23T17:13:54.298Z,99554.22
2023-04-23T17:16:21.636Z,99540.63
2023-04-23T17:18:49.172Z,99542.97
2023-04-23T17:21:16.378Z,99554.50
2023-04-23T17:23:43.344Z,99545.88
2023-04-23T17:26:10.372Z,99560.91
2023-04-23T17:28:37.405Z,99565.03
2023-04-23T17:31:04.368Z,99552.47
2023-04-23T17:33:31.563Z,99551.88
2023-04-23T17:35:58.518Z,99552.53
2023-04-23T17:38:26.128Z,99546.97
2023-04-23T17:40:53.676Z,99547.94
2023-04-23T17:43:21.413Z,99549.13
2023-04-23T17:45:48.762Z,99543.94
2023-04-23T17:48:16.013Z,99552.69
2023-04-23T17:50:43.721Z,99538.22
2023-04-23T17:53:10.862Z,99529.63
2023-04-23T17:55:38.844Z,99550.81
2023-04-23T17:58:06.629Z,99554.97
2023-04-23T18:00:35.597Z,99561.03
2023-04-23T18:03:05.178Z,99558.22
2023-04-23T18:05:34.965Z,99559.53
2023-04-23T18:08:01.911Z,99549.69
2023-04-23T18:10:29.963Z,99540.31
2023-04-23T18:12:57.081Z,99545.72
2023-04-23T18:15:25.927Z,99551.75
2023-04-23T18:17:57.770Z,99560.31
2023-04-23T18:20:26.777Z,99560.97
2023-04-23T18:22:56.850Z,99551.91
2023-04-23T18:25:25.415Z,99561.28
2023-04-23T18:27:53.015Z,99553.78
2023-04-23T18:30:23.362Z,99559.84
2023-04-23T18:32:59.920Z,99550.44
2023-04-23T18:35:27.739Z,99553.59
2023-04-23T18:38:02.742Z,99554.25
2023-04-23T18:40:29.829Z,99551.69
2023-04-23T18:42:57.086Z,99544.97
2023-04-23T18:45:24.578Z,99542.13
2023-04-23T18:47:57.784Z,99535.94
2023-04-23T18:50:48.637Z,99530.41
2023-04-23T18:53:16.109Z,99532.16
2023-04-23T18:55:42.951Z,99527.69
2023-04-23T18:58:10.993Z,99548.84
2023-04-23T19:00:38.021Z,99565.84
2023-04-23T19:03:15.229Z,99552.81
2023-04-23T19:05:51.347Z,99560.75
2023-04-23T19:08:18.314Z,99574.25
2023-04-23T19:10:45.752Z,99568.53
2023-04-23T19:13:12.540Z,99578.19
2023-04-23T19:15:39.414Z,99584.53
2023-04-23T19:18:06.492Z,99575.78
2023-04-23T19:20:33.880Z,99579.13
2023-04-23T19:23:04.193Z,99577.38
2023-04-23T19:25:32.521Z,99588.97
2023-04-23T19:27:59.830Z,99587.41
2023-04-23T19:30:27.063Z,99586.91
2023-04-23T19:32:54.120Z,99591.69
2023-04-23T19:35:21.699Z,99595.81
2023-04-23T19:37:48.805Z,99599.94
2023-04-23T19:40:16.458Z,99592.44
2023-04-23T19:42:43.556Z,99596.09
2023-04-23T19:45:10.930Z,99596.91
2023-04-23T19:47:40.548Z,99599.44
2023-04-23T19:50:12.557Z,99596.56
2023-04-23T19:52:40.550Z,99599.06
2023-04-23T19:55:10.387Z,99590.09
2023-04-23T19:57:37.813Z,99590.50
2023-04-23T20:00:06.687Z,99594.97
2023-04-23T20:02:35.848Z,99598.44
2023-04-23T20:05:03.798Z,99594.00
2023-04-23T20:07:35.657Z,99596.19
2023-04-23T20:10:02.526Z,99590.81
2023-04-23T20:12:30.673Z,99591.59
2023-04-23T20:14:57.887Z,99589.69
2023-04-23T20:17:26.760Z,99591.28
2023-04-23T20:19:54.337Z,99598.56
2023-04-23T20:22:21.069Z,99595.56
2023-04-23T20:24:49.285Z,99596.69
2023-04-23T20:27:16.451Z,99602.34
2023-04-23T20:29:43.355Z,99601.47
2023-04-23T20:32:10.551Z,99595.09
2023-04-23T20:34:37.727Z,99602.53
2023-04-23T20:37:04.559Z,99610.31
2023-04-23T20:39:32.685Z,99610.44
2023-04-23T20:42:01.157Z,99606.63
2023-04-23T20:44:28.234Z,99616.63
2023-04-23T20:46:57.920Z,99614.91
2023-04-23T20:49:27.958Z,99624.53
2023-04-23T20:51:55.245Z,99617.41
2023-04-23T20:54:22.572Z,99619.63
2023-04-23T20:56:54.084Z,99617.66
2023-04-23T20:59:22.063Z,99616.53
2023-04-23T21:01:49.941Z,99619.72
2023-04-23T21:04:17.420Z,99614.81
2023-04-23T21:06:44.457Z,99624.94
2023-04-23T21:09:11.474Z,99621.66
2023-04-23T21:11:38.819Z,99617.06
2023-04-23T21:14:08.754Z,99615.09
2023-04-23T21:16:39.357Z,99621.09
2023-04-23T21:19:06.312Z,99618.50
2023-04-23T21:21:33.336Z,99617.50
2023-04-23T21:24:01.110Z,99613.31
2023-04-23T21:26:31.296Z,99620.31
2023-04-23T21:28:58.565Z,99623.13
2023-04-23T21:31:48.382Z,99628.09
2023-04-23T21:34:15.759Z,99632.28
2023-04-23T21:36:44.871Z,99629.66
2023-04-23T21:39:13.312Z,99638.34
2023-04-23T21:41:40.442Z,99637.25
2023-04-23T21:44:08.696Z,99642.06
2023-04-23T21:46:35.619Z,99638.34
2023-04-23T21:49:02.540Z,99632.47
2023-04-23T21:51:29.919Z,99639.75
2023-04-23T21:53:57.033Z,99635.16
2023-04-23T21:56:27.416Z,99636.25
2023-04-23T21:58:54.157Z,99632.06
2023-04-23T22:01:22.161Z,99630.69
2023-04-23T22:03:50.413Z,99615.41
2023-04-23T22:06:19.796Z,99619.31
2023-04-23T22:08:46.992Z,99609.94
2023-04-23T22:11:15.056Z,99611.72
2023-04-23T22:13:42.301Z,99605.69
2023-04-23T22:16:24.618Z,99616.34
2023-04-23T22:18:57.081Z,99609.97
2023-04-23T22:21:24.009Z,99621.22
2023-04-23T22:23:53.556Z,99609.97
2023-04-23T22:26:21.306Z,99622.41
2023-04-23T22:28:48.192Z,99618.19
2023-04-23T22:31:15.194Z,99610.00
2023-04-23T22:33:42.106Z,99615.97
2023-04-23T22:36:09.008Z,99620.56
2023-04-23T22:38:35.858Z,99622.13
2023-04-23T22:41:02.977Z,99606.78
2023-04-23T22:43:30.611Z,99606.94
2023-04-23T22:45:57.872Z,99613.31
2023-04-23T22:48:25.031Z,99610.41
2023-04-23T22:50:52.659Z,99612.88
2023-04-23T22:53:20.335Z,99623.72
2023-04-23T22:55:47.481Z,99618.91
2023-04-23T22:58:14.646Z,99623.56
2023-04-23T23:00:42.189Z,99620.44
2023-04-23T23:03:09.502Z,99615.38
2023-04-23T23:05:36.883Z,99610.00
2023-04-23T23:08:04.171Z,99607.81
2023-04-23T23:10:31.825Z,99611.53
2023-04-23T23:13:02.934Z,99616.72
2023-04-23T23:15:30.169Z,99612.75
2023-04-23T23:17:58.122Z,99609.31
2023-04-23T23:20:26.550Z,99617.03
2023-04-23T23:22:53.559Z,99615.28
2023-04-23T23:25:20.794Z,99611.28
2023-04-23T23:27:48.475Z,99605.13
2023-04-23T23:30:15.676Z,99606.78
2023-04-23T23:32:42.890Z,99604.88
2023-04-23T23:35:10.059Z,99604.25
2023-04-23T23:37:36.962Z,99614.25
2023-04-23T23:40:05.952Z,99595.69
2023-04-23T23:42:32.854Z,99604.03
2023-04-23T23:44:59.510Z,99601.84
2023-04-23T23:47:26.266Z,99607.00
2023-04-23T23:49:53.054Z,99600.03
2023-04-23T23:52:19.763Z,99591.09
2023-04-23T23:54:46.312Z,99590.72
2023-04-23T23:57:12.908Z,99593.53
2023-04-23T23:59:39.743Z,99600.53
